Weather at Gjadër Air Base [CLOSED]

Public forecast

Using degrees Celsius for public forecast. Weather courtesy of forecast.io.

Closest aviation weather report (METAR) to Gjadër Air Base

Closest report is Tirana International Airport Mother Teresa, 29.4 nm (54.4 km) S.

2024/06/21 17:50 (retrieved 22 minutes ago)

LATI 211750Z VRB02KT CAVOK 31/21 Q1012 NOSIG

Closest aviation forecast (TAF) to Gjadër Air Base

Closest forecast is Tirana International Airport Mother Teresa, 29.4 nm (54.4 km) S.

2024/06/21 18:06 (retrieved 6 minutes ago)

TAF LATI 211700Z 2118/2218 VRB03KT CAVOK TX38/2212Z TN19/2203Z TEMPO 2210/2216 32010KT